Terminal Aerodrome Forecast
Issued by NWS Mt. Holly, NJ

Current Version | Previous Version | Text Only | Print | Product List | Glossary On
Versions: 1 2 3 4 5 6 7 8 9 10 11 12 13 14 15
000
FTUS41 KPHI 301100
TAFACY
TAF
KACY 301137Z 3012/0112 00000KT P6SM VCSH FEW050 OVC110
     FM301500 11005KT P6SM BKN150
     FM301800 09008KT P6SM SCT050
     FM010000 06007KT P6SM BKN012
     FM010500 03010KT 6SM BR OVC006=

USA.gov is the U.S. government's official web portal to all federal, state and local government web resources and services.